UAL2848 TDPD-KEWR
Flight info
| Callsign | UAL2848 |
|---|---|
| Flight time | N/A |
| Altitude | 36000 |
| Route | KAROT1 PPR DCT ELOPO Y355 SLUGO DCT THANK/N0469F350 DCT HANCY/M080F360 L456 EMAKO/M080F380 L456 DARUX L459 SAVIK/N0458F380 DCT YAALE/N0457F390 Y497 MOUGH/N0457F380 Y497 SUBBS DCT CYN DCT GXU DCT RBV V249 METRO DCT |
| Aircraft | B737/M-SDE2E3FGHIRWXY/LB1 |
Departure
| Time | 2026-04-21 19:57 |
|---|---|
| Airport | Douglas-Charles Airport (TDPD) |
Arrival
| Time | N/A |
|---|---|
| Airport | Newark Liberty International Airport (KEWR) |
| Time | Latitude | Longitude | Altitude | Speed | Heading |
|---|---|---|---|---|---|
| 2026-04-21 19:36 | 15.54578 | -61.30078 | 56 ft | 0 kts | 248° |
| 2026-04-21 19:53 | 15.54568 | -61.30102 | 56 ft | 7 kts | 250° |
| 2026-04-21 19:53 | 15.54576 | -61.30169 | 52 ft | 11 kts | 295° |
| 2026-04-21 19:54 | 15.54614 | -61.30240 | 61 ft | 11 kts | 283° |
| 2026-04-21 19:54 | 15.54595 | -61.30317 | 59 ft | 11 kts | 249° |
| 2026-04-21 19:54 | 15.54561 | -61.30412 | 60 ft | 16 kts | 249° |
| 2026-04-21 19:54 | 15.54523 | -61.30516 | 68 ft | 15 kts | 249° |
| 2026-04-21 19:55 | 15.54489 | -61.30616 | 76 ft | 14 kts | 250° |
| 2026-04-21 19:55 | 15.54454 | -61.30711 | 81 ft | 14 kts | 249° |
| 2026-04-21 19:55 | 15.54421 | -61.30803 | 86 ft | 14 kts | 248° |
| 2026-04-21 19:55 | 15.54381 | -61.30899 | 91 ft | 13 kts | 294° |
| 2026-04-21 19:56 | 15.54412 | -61.30856 | 87 ft | 11 kts | 83° |
| 2026-04-21 19:56 | 15.54455 | -61.30731 | 82 ft | 39 kts | 69° |
| 2026-04-21 19:56 | 15.54653 | -61.30163 | 56 ft | 127 kts | 70° |
| 2026-04-21 19:56 | 15.55035 | -61.29077 | 197 ft | 184 kts | 70° |
| 2026-04-21 19:57 | 15.55477 | -61.27787 | 1083 ft | 197 kts | 74° |
| 2026-04-21 19:57 | 15.55967 | -61.26361 | 1798 ft | 213 kts | 70° |
| 2026-04-21 19:57 | 15.56476 | -61.24964 | 3030 ft | 200 kts | 70° |
| 2026-04-21 19:57 | 15.56956 | -61.23627 | 4106 ft | 201 kts | 69° |
| 2026-04-21 19:58 | 15.57491 | -61.22184 | 4524 ft | 230 kts | 69° |
| 2026-04-21 19:58 | 15.58458 | -61.20795 | 5031 ft | 250 kts | 36° |
| 2026-04-21 19:58 | 15.60121 | -61.20024 | 5617 ft | 271 kts | 18° |
| 2026-04-21 19:58 | 15.61932 | -61.19406 | 6672 ft | 276 kts | 19° |
| 2026-04-21 19:59 | 15.63752 | -61.18756 | 7684 ft | 280 kts | 20° |
| 2026-04-21 19:59 | 15.65607 | -61.18062 | 8633 ft | 288 kts | 20° |
| 2026-04-21 19:59 | 15.67501 | -61.17342 | 9617 ft | 291 kts | 20° |
| 2026-04-21 19:59 | 15.69469 | -61.16801 | 10536 ft | 298 kts | 3° |
| 2026-04-21 20:00 | 15.71564 | -61.17165 | 10974 ft | 321 kts | 336° |
| 2026-04-21 20:00 | 15.73590 | -61.18349 | 11208 ft | 347 kts | 327° |
| 2026-04-21 20:00 | 15.75690 | -61.19758 | 11393 ft | 372 kts | 326° |
| 2026-04-21 20:00 | 15.77883 | -61.21274 | 11595 ft | 394 kts | 326° |
| 2026-04-21 20:01 | 15.80195 | -61.22872 | 12128 ft | 403 kts | 326° |
| 2026-04-21 20:01 | 15.82545 | -61.24480 | 12844 ft | 405 kts | 326° |
| 2026-04-21 20:01 | 15.84912 | -61.26086 | 13556 ft | 408 kts | 326° |
| 2026-04-21 20:01 | 15.87302 | -61.27694 | 14211 ft | 411 kts | 327° |
| 2026-04-21 20:02 | 15.89710 | -61.29310 | 14826 ft | 414 kts | 327° |
| 2026-04-21 20:02 | 15.92138 | -61.30937 | 15426 ft | 416 kts | 327° |
| 2026-04-21 20:02 | 15.94583 | -61.32574 | 15985 ft | 419 kts | 327° |
| 2026-04-21 20:02 | 15.97039 | -61.34219 | 16504 ft | 422 kts | 327° |
| 2026-04-21 20:03 | 15.99515 | -61.35879 | 17020 ft | 424 kts | 327° |
| 2026-04-21 20:03 | 16.01997 | -61.37544 | 17481 ft | 426 kts | 327° |
| 2026-04-21 20:03 | 16.04491 | -61.39216 | 17938 ft | 427 kts | 327° |
| 2026-04-21 20:03 | 16.06998 | -61.40896 | 18303 ft | 430 kts | 327° |
| 2026-04-21 20:04 | 16.09521 | -61.42592 | 18706 ft | 433 kts | 327° |
| 2026-04-21 20:04 | 16.12056 | -61.44296 | 19091 ft | 435 kts | 327° |
| 2026-04-21 20:04 | 16.14605 | -61.46006 | 19462 ft | 438 kts | 327° |
| 2026-04-21 20:04 | 16.17171 | -61.47726 | 19814 ft | 439 kts | 327° |
| 2026-04-21 20:05 | 16.19744 | -61.49454 | 20171 ft | 441 kts | 326° |
| 2026-04-21 20:05 | 16.22317 | -61.51184 | 20443 ft | 443 kts | 326° |
| 2026-04-21 20:05 | 16.24922 | -61.52935 | 20732 ft | 446 kts | 326° |
| 2026-04-21 20:05 | 16.27522 | -61.54696 | 21043 ft | 447 kts | 325° |
| 2026-04-21 20:06 | 16.30098 | -61.56522 | 21356 ft | 449 kts | 324° |
| 2026-04-21 20:06 | 16.32669 | -61.58393 | 21636 ft | 451 kts | 324° |
| 2026-04-21 20:06 | 16.35236 | -61.60279 | 21876 ft | 452 kts | 323° |
| 2026-04-21 20:06 | 16.37812 | -61.62173 | 22129 ft | 454 kts | 323° |
| 2026-04-21 20:07 | 16.40398 | -61.64071 | 22373 ft | 456 kts | 323° |
| 2026-04-21 20:07 | 16.42996 | -61.65972 | 22621 ft | 456 kts | 323° |
| 2026-04-21 20:07 | 16.45603 | -61.67871 | 22802 ft | 459 kts | 323° |
| 2026-04-21 20:07 | 16.48226 | -61.69781 | 23028 ft | 460 kts | 323° |
| 2026-04-21 20:08 | 16.50854 | -61.71694 | 23246 ft | 462 kts | 323° |
| 2026-04-21 20:08 | 16.53485 | -61.73612 | 23488 ft | 462 kts | 323° |
| 2026-04-21 20:08 | 16.56126 | -61.75536 | 23669 ft | 464 kts | 323° |
| 2026-04-21 20:08 | 16.58773 | -61.77463 | 23829 ft | 465 kts | 323° |
| 2026-04-21 20:09 | 16.61432 | -61.79397 | 24007 ft | 466 kts | 323° |
| 2026-04-21 20:09 | 16.64092 | -61.81336 | 24159 ft | 467 kts | 323° |
| 2026-04-21 20:09 | 16.66758 | -61.83280 | 24325 ft | 468 kts | 323° |
| 2026-04-21 20:09 | 16.69427 | -61.85228 | 24521 ft | 468 kts | 323° |
| 2026-04-21 20:10 | 16.72097 | -61.87178 | 24705 ft | 468 kts | 323° |
| 2026-04-21 20:10 | 16.74766 | -61.89124 | 24865 ft | 469 kts | 323° |
| 2026-04-21 20:10 | 16.77446 | -61.91077 | 25025 ft | 470 kts | 323° |
| 2026-04-21 20:10 | 16.80121 | -61.93029 | 25218 ft | 469 kts | 323° |
| 2026-04-21 20:11 | 16.82798 | -61.94987 | 25365 ft | 470 kts | 323° |
| 2026-04-21 20:11 | 16.85483 | -61.96950 | 25519 ft | 471 kts | 323° |
| 2026-04-21 20:11 | 16.88165 | -61.98912 | 25670 ft | 471 kts | 323° |
| 2026-04-21 20:11 | 16.90848 | -62.00875 | 25807 ft | 471 kts | 323° |
| 2026-04-21 20:12 | 16.93529 | -62.02837 | 25910 ft | 472 kts | 322° |
| 2026-04-21 20:12 | 16.96227 | -62.04815 | 25989 ft | 473 kts | 323° |
| 2026-04-21 20:12 | 16.98010 | -62.06121 | 26073 ft | 473 kts | 322° |
| 2026-04-21 20:12 | 17.01604 | -62.08752 | 26333 ft | 471 kts | 322° |
| 2026-04-21 20:13 | 17.04280 | -62.10711 | 26549 ft | 469 kts | 323° |
| 2026-04-21 20:13 | 17.06952 | -62.12666 | 26753 ft | 468 kts | 322° |
| 2026-04-21 20:13 | 17.09581 | -62.14594 | 26977 ft | 467 kts | 322° |
| 2026-04-21 20:13 | 17.12231 | -62.16543 | 27230 ft | 466 kts | 322° |
| 2026-04-21 20:14 | 17.14883 | -62.18489 | 27504 ft | 464 kts | 322° |
| 2026-04-21 20:14 | 17.17518 | -62.20423 | 27799 ft | 462 kts | 322° |
| 2026-04-21 20:14 | 17.20141 | -62.22349 | 28032 ft | 460 kts | 322° |
| 2026-04-21 20:14 | 17.22762 | -62.24274 | 28228 ft | 460 kts | 322° |
| 2026-04-21 20:15 | 17.25379 | -62.26200 | 28490 ft | 458 kts | 322° |
| 2026-04-21 20:15 | 17.27989 | -62.28115 | 28760 ft | 457 kts | 322° |
| 2026-04-21 20:15 | 17.30587 | -62.30024 | 29039 ft | 456 kts | 322° |
| 2026-04-21 20:15 | 17.33176 | -62.31928 | 29347 ft | 454 kts | 322° |
| 2026-04-21 20:16 | 17.35759 | -62.33825 | 29692 ft | 453 kts | 322° |
| 2026-04-21 20:16 | 17.38329 | -62.35715 | 30082 ft | 450 kts | 322° |
| 2026-04-21 20:16 | 17.40879 | -62.37592 | 30432 ft | 448 kts | 322° |
| 2026-04-21 20:16 | 17.43425 | -62.39471 | 30712 ft | 448 kts | 322° |
| 2026-04-21 20:17 | 17.45977 | -62.41354 | 31008 ft | 448 kts | 321° |
| 2026-04-21 20:17 | 17.48518 | -62.43226 | 31387 ft | 446 kts | 321° |
| 2026-04-21 20:17 | 17.51051 | -62.45095 | 31756 ft | 444 kts | 321° |
| 2026-04-21 20:17 | 17.53572 | -62.46955 | 32132 ft | 443 kts | 321° |
| 2026-04-21 20:18 | 17.55238 | -62.48187 | 32337 ft | 443 kts | 321° |
| 2026-04-21 20:18 | 17.58603 | -62.50674 | 32762 ft | 442 kts | 321° |
| 2026-04-21 20:18 | 17.61115 | -62.52528 | 33130 ft | 441 kts | 320° |
| 2026-04-21 20:18 | 17.63560 | -62.54443 | 33540 ft | 436 kts | 315° |
| 2026-04-21 20:19 | 17.65729 | -62.56632 | 33921 ft | 431 kts | 308° |
| 2026-04-21 20:19 | 17.67580 | -62.59078 | 34315 ft | 425 kts | 302° |
| 2026-04-21 20:19 | 17.69271 | -62.61615 | 34655 ft | 424 kts | 302° |
| 2026-04-21 20:19 | 17.70944 | -62.64163 | 34934 ft | 424 kts | 301° |
| 2026-04-21 20:20 | 17.72621 | -62.66719 | 35176 ft | 425 kts | 301° |
| 2026-04-21 20:20 | 17.74301 | -62.69268 | 35448 ft | 425 kts | 302° |
| 2026-04-21 20:20 | 17.75983 | -62.71804 | 35791 ft | 423 kts | 302° |
| 2026-04-21 20:20 | 17.77667 | -62.74334 | 35995 ft | 424 kts | 302° |
| 2026-04-21 20:21 | 17.79364 | -62.76876 | 35975 ft | 425 kts | 302° |
| 2026-04-21 20:21 | 17.82750 | -62.81950 | 35986 ft | 423 kts | 302° |
| 2026-04-21 20:22 | 17.86106 | -62.86985 | 35986 ft | 419 kts | 302° |
| 2026-04-21 20:22 | 17.91111 | -62.94494 | 35987 ft | 417 kts | 302° |
| 2026-04-21 20:23 | 17.94413 | -62.99458 | 35995 ft | 417 kts | 302° |
| 2026-04-21 20:23 | 17.97741 | -63.04462 | 35994 ft | 418 kts | 302° |
| 2026-04-21 20:24 | 18.01075 | -63.09482 | 35998 ft | 420 kts | 302° |
| 2026-04-21 20:24 | 18.04414 | -63.14522 | 35996 ft | 421 kts | 302° |
| 2026-04-21 20:25 | 18.07767 | -63.19571 | 35989 ft | 421 kts | 302° |
| 2026-04-21 20:25 | 18.11117 | -63.24626 | 35986 ft | 422 kts | 302° |
| 2026-04-21 20:26 | 18.13930 | -63.28857 | 35992 ft | 422 kts | 302° |
| 2026-04-21 20:26 | 18.17271 | -63.33918 | 35991 ft | 420 kts | 302° |
| 2026-04-21 20:27 | 18.20620 | -63.38976 | 35994 ft | 422 kts | 302° |
| 2026-04-21 20:27 | 18.23959 | -63.44047 | 36002 ft | 420 kts | 302° |
| 2026-04-21 20:28 | 18.27303 | -63.49100 | 36001 ft | 420 kts | 302° |
| 2026-04-21 20:28 | 18.30644 | -63.54168 | 35996 ft | 421 kts | 302° |
| 2026-04-21 20:29 | 18.33988 | -63.59233 | 36005 ft | 421 kts | 302° |
| 2026-04-21 20:29 | 18.37339 | -63.64300 | 35995 ft | 422 kts | 304° |
| 2026-04-21 20:30 | 18.41465 | -63.68742 | 35998 ft | 430 kts | 319° |
| 2026-04-21 20:30 | 18.46300 | -63.72400 | 35997 ft | 431 kts | 320° |
| 2026-04-21 20:31 | 18.51182 | -63.76054 | 35999 ft | 430 kts | 319° |
| 2026-04-21 20:31 | 18.56049 | -63.79720 | 35990 ft | 430 kts | 319° |
| 2026-04-21 20:32 | 18.60909 | -63.83409 | 35998 ft | 431 kts | 319° |
| 2026-04-21 20:32 | 18.65759 | -63.87109 | 36004 ft | 429 kts | 319° |
| 2026-04-21 20:33 | 18.70591 | -63.90793 | 36000 ft | 428 kts | 319° |
| 2026-04-21 20:33 | 18.75424 | -63.94475 | 36008 ft | 428 kts | 319° |
| 2026-04-21 20:34 | 18.80249 | -63.98154 | 36008 ft | 427 kts | 319° |
| 2026-04-21 20:34 | 18.85060 | -64.01826 | 36007 ft | 427 kts | 319° |
| 2026-04-21 20:35 | 18.89875 | -64.05496 | 36010 ft | 427 kts | 319° |
| 2026-04-21 20:35 | 18.94674 | -64.09173 | 36010 ft | 426 kts | 319° |
| 2026-04-21 20:36 | 18.99471 | -64.12846 | 36007 ft | 425 kts | 319° |
| 2026-04-21 20:36 | 19.04238 | -64.16500 | 36013 ft | 424 kts | 319° |
| 2026-04-21 20:37 | 19.09025 | -64.20166 | 36010 ft | 424 kts | 319° |
| 2026-04-21 20:37 | 19.13787 | -64.23823 | 36006 ft | 424 kts | 319° |
| 2026-04-21 20:38 | 19.18555 | -64.27478 | 36011 ft | 423 kts | 319° |
| 2026-04-21 20:38 | 19.23324 | -64.31136 | 36011 ft | 423 kts | 319° |
| 2026-04-21 20:39 | 19.28083 | -64.34792 | 36009 ft | 423 kts | 319° |
| 2026-04-21 20:39 | 19.32846 | -64.38455 | 36010 ft | 423 kts | 319° |
| 2026-04-21 20:40 | 19.37583 | -64.42097 | 36008 ft | 424 kts | 319° |
| 2026-04-21 20:40 | 19.42376 | -64.45788 | 36008 ft | 423 kts | 319° |
| 2026-04-21 20:41 | 19.47101 | -64.49431 | 36007 ft | 422 kts | 319° |
| 2026-04-21 20:41 | 19.51859 | -64.53103 | 36011 ft | 423 kts | 319° |
| 2026-04-21 20:42 | 19.56645 | -64.56801 | 36013 ft | 423 kts | 319° |
| 2026-04-21 20:42 | 19.61404 | -64.60470 | 36005 ft | 422 kts | 319° |
| 2026-04-21 20:43 | 19.66146 | -64.64139 | 36008 ft | 422 kts | 319° |
| 2026-04-21 20:43 | 19.70892 | -64.67817 | 36008 ft | 422 kts | 319° |
| 2026-04-21 20:44 | 19.75635 | -64.71493 | 36003 ft | 422 kts | 319° |
| 2026-04-21 20:44 | 19.80371 | -64.75165 | 36012 ft | 421 kts | 319° |
| 2026-04-21 20:45 | 19.85103 | -64.78829 | 36010 ft | 421 kts | 319° |
| 2026-04-21 20:45 | 19.89834 | -64.82496 | 36010 ft | 421 kts | 319° |
| 2026-04-21 20:46 | 19.94524 | -64.86136 | 36010 ft | 420 kts | 319° |
| 2026-04-21 20:46 | 19.99250 | -64.89808 | 36010 ft | 421 kts | 319° |
| 2026-04-21 20:47 | 20.03980 | -64.93492 | 36015 ft | 421 kts | 319° |
| 2026-04-21 20:47 | 20.08712 | -64.97173 | 36009 ft | 421 kts | 319° |
| 2026-04-21 20:48 | 20.13442 | -65.00851 | 36009 ft | 421 kts | 319° |
| 2026-04-21 20:48 | 20.18156 | -65.04527 | 36007 ft | 419 kts | 318° |
| 2026-04-21 20:49 | 20.22858 | -65.08198 | 36011 ft | 420 kts | 318° |
| 2026-04-21 20:49 | 20.27557 | -65.11866 | 36010 ft | 418 kts | 318° |
| 2026-04-21 20:50 | 20.32251 | -65.15535 | 36000 ft | 418 kts | 318° |
| 2026-04-21 20:50 | 20.36945 | -65.19200 | 36002 ft | 418 kts | 318° |
| 2026-04-21 20:51 | 20.41641 | -65.22876 | 36000 ft | 419 kts | 318° |
| 2026-04-21 20:51 | 20.46337 | -65.26555 | 36001 ft | 419 kts | 318° |
| 2026-04-21 20:52 | 20.51039 | -65.30236 | 36002 ft | 419 kts | 318° |
| 2026-04-21 20:52 | 20.55747 | -65.33934 | 35998 ft | 420 kts | 318° |
| 2026-04-21 20:53 | 20.60459 | -65.37633 | 35999 ft | 420 kts | 318° |
| 2026-04-21 20:53 | 20.65172 | -65.41333 | 35999 ft | 421 kts | 318° |
| 2026-04-21 20:54 | 20.69883 | -65.45038 | 35999 ft | 420 kts | 318° |
| 2026-04-21 20:54 | 20.74591 | -65.48746 | 36002 ft | 420 kts | 318° |
| 2026-04-21 20:55 | 20.79292 | -65.52444 | 35998 ft | 419 kts | 318° |
| 2026-04-21 20:55 | 20.83987 | -65.56146 | 36001 ft | 419 kts | 318° |
| 2026-04-21 20:56 | 20.88676 | -65.59845 | 36000 ft | 418 kts | 318° |
| 2026-04-21 20:56 | 20.93352 | -65.63536 | 36002 ft | 418 kts | 318° |
| 2026-04-21 20:57 | 20.98026 | -65.67230 | 35996 ft | 418 kts | 318° |